Kerby, OR (97531)

11:30 AM PDT on March 28, 2017 (GMT -0700)
Holton Creek Rd, Kerby, Or | | Change Station

Elev 1280 ft 42.19 °N, 123.65 °W | Updated 11 seconds ago

Overcast
Overcast
52.9 °F
Feels Like 52.9 °F
N
3.1
Wind Variable Wind from SW
Gusts 4.5 mph

Today
High -- | Low -- °F
--% Chance of Precip.
Yesterday
High -- | Low -- °F
Precip. -- in
Pressure 30.45 in
Visibility 10.0 miles
Clouds Overcast 10000 ft
Dew Point 41 °F
Humidity 63%
Rainfall 0.00 in
Snow Depth Not available.
7:03 AM 7:36 PM
New Moon, 1% visible
METAR KBOK 281756Z AUTO 00000KT 10SM OVC100 12/06 A3040 RMK AO2 SLP311 6//// T01220056 10122 20061 53001
Pressure 30.45 in
Visibility 10.0 miles
Clouds Overcast 10000 ft
Dew Point 41 °F
Humidity 63%
Rainfall 0.00 in
Snow Depth Not available.
7:03 AM 7:36 PM
New Moon, 1% visible
METAR KBOK 281756Z AUTO 00000KT 10SM OVC100 12/06 A3040 RMK AO2 SLP311 6//// T01220056 10122 20061 53001

Get Severe Weather Alerts

Thanks for signing up!

Be on the lookout for a verification email in your inbox.

You'll start receiving the daily forecast at 8 AM.

×

10-Day Weather Forecast

Almanac

Astronomy

Mar. 28, 2017 Rise Set
Actual Time
Civil Twilight
Nautical Twilight
Astronomical Twilight
Moon
Length of Visible Light
Length of Day
Tomorrow will be .
, % of the Moon is Illuminated

Today's Extremes

State Highs State Lows

Community

WunderPhotos

Upload Photos

1,962,540 photos uploaded!

WunderBlog® & News

Nearby

Air Quality

  Air Quality AQ Index Pollutant
Not available.

Snow Depth

Station Depth Elevation

Earthquake Activity

City Distance Mag. Time & Date
Minimum magnitude displayed is 2.5.

Earthquake Activity

City Distance Mag. Time & Date
Minimum magnitude displayed is 2.5.

Coastal Water Temperatures

Place Temperature

Stations

Nearby Weather Stations

Station Location Temp. Windchill Dew Point Humidity Wind Precip. Elev Updated Type
                   

Watches & Warnings

There are currently no watches in effect.